This is the latest recevied weather packets stored in our database for station/object WB3IGR. If no packets are shown the sender has not sent any weather packets the latest 10 day(s).
| Time | Temp. | Humidity | Pressure | Rain* | Wind** | Luminosity | Snow |
|---|---|---|---|---|---|---|---|
| 1778099411 | 18.33° C | 90% | 1008.7 hPa | 0 mm | - | 210 W/m² | - |
| 1778099109 | 18.33° C | 91% | 1008.7 hPa | 0 mm | - | 211 W/m² | - |
| 1778098804 | 18.33° C | 91% | 1008.6 hPa | 0 mm | - | 97 W/m² | - |
| 1778098503 | 18.33° C | 90% | 1008.7 hPa | 0 mm | - | 47 W/m² | - |
| 1778098199 | 18.33° C | 90% | 1008.8 hPa | 0 mm | - | 98 W/m² | - |
| 1778097895 | 18.89° C | 90% | 1008.6 hPa | 0 mm | - | 145 W/m² | - |
| 1778097591 | 18.89° C | 90% | 1008.7 hPa | 0 mm | - | 156 W/m² | - |
| 1778097289 | 18.33° C | 90% | 1008.8 hPa | 0 mm | - | 287 W/m² | - |
| 1778096985 | 18.33° C | 91% | 1008.8 hPa | 0 mm | - | 134 W/m² | - |
| 1778096683 | 18.33° C | 90% | 1008.7 hPa | 0 mm | - | 153 W/m² | - |
| 1778096379 | 18.33° C | 91% | 1008.9 hPa | 0 mm | - | 154 W/m² | - |
| 1778096076 | 18.89° C | 90% | 1008.8 hPa | 0 mm | - | 145 W/m² | - |
| 1778095773 | 18.33° C | 90% | 1008.7 hPa | 0 mm | - | 230 W/m² | - |
| 1778095470 | 18.89° C | 90% | 1008.7 hPa | 0 mm | - | 209 W/m² | - |
| 1778095167 | 18.33° C | 90% | 1008.8 hPa | 0 mm | - | 282 W/m² | - |
| 1778094863 | 18.33° C | 91% | 1008.7 hPa | 0 mm | - | 441 W/m² | - |
| 1778094560 | 18.89° C | 90% | 1009 hPa | 0 mm | - | 315 W/m² | - |
| 1778094256 | 18.33° C | 91% | 1008.7 hPa | 0 mm | - | 501 W/m² | - |
| 1778093953 | 18.33° C | 91% | 1009 hPa | 0 mm | - | 385 W/m² | - |
| 1778093651 | 18.33° C | 91% | 1009.1 hPa | 0 mm | - | 359 W/m² | - |
| 1778093348 | 18.33° C | 91% | 1009 hPa | 0 mm | - | 439 W/m² | - |
| 1778093045 | 18.33° C | 92% | 1009 hPa | 0 mm | - | 450 W/m² | - |
| 1778092742 | 17.78° C | 94% | 1009.1 hPa | 0 mm | - | 462 W/m² | - |
| 1778092437 | 17.22° C | 95% | 1009.1 hPa | 0 mm | - | 393 W/m² | - |
| 1778092134 | 17.22° C | 95% | 1009.1 hPa | 0 mm | - | 409 W/m² | - |
* Rain latest hour (hover to see other rain measurements)
** Current wind speed in m/s (hover to see current wind gust speed)